ADDS METAR Data

Data at: 1836 UTC 20 Jul 2018

METAR for:KACK (Nantucket Mem Arpt, MA, US)
Text:KACK 201753Z 15008KT 10SM CLR 22/12 A3020 RMK AO2 SLP227 T02220117 10228 20200 55002
Temperature: 22.2°C ( 72°F)
Dewpoint: 11.7°C ( 53°F) [RH = 51%]
Pressure (altimeter):30.20 inches Hg (1022.8 mb) [Sea level pressure: 1022.7 mb]
Winds:from the SSE (150 degrees) at 9 MPH (8 knots; 4.1 m/s)
Visibility:10 or more sm (16+ km)
Ceiling:at least 12,000 feet AGL
Clouds:sky clear below 12,000 feet AGL